Accueil
METAR-TAF:

METAR-TAF

Aéroports :

Ankara Etimesgut, Turquie

latitude: 39-57N, longitude: 032-41E, altitude: 799 m

METAR: absent

Heure: 05:56 (02:56 UTC)

Prévision

Le bulletin a été fait il y a 1 heure et 16 minutes, à 01:40 UTC
Prévision valable du 20 à 03 UTC au 20 à 12 UTC
Vent 2 kt de direction variable
Visibilité 10 km ou plus
pas de nuages en-dessous de 1500 mètres et pas de cumulonimbus.
Evoluant progressivement
du 20 à 08 UTC au 20 à 10 UTC
Quelques nuages à une hauteur de 4000 ft

TAF: LTAD 200140Z 2003/2012 VRB02KT CAVOK BECMG 2008/2010 FEW040

Observations et prévisions météorologiques de plus de 4000 aéroports (messages METAR et TAF).

Les stations disponibles sont représentées par des disques jaunes et rouges sur la carte.

Passer la souris dessus pour voir le nom de la station.

Cliquer dessus pour voir les observations et prévisions météorologiques.

Pour changer de carte: cliquez sur les boutons verts avec une croix noire pour zoomer, sur le bouton vert avec un tiret pour effectuer un zoom arrière, ou sur les flèches vertes pour les cartes adjacentes.


METAR-TAF: